Time;durP1;ratioP1;P1;durP2;ratioP2;P2;SDS_P1;SDS_P2;PMS_P1;PMS_P2;Temp;Humidity;BMP_temperature;BMP_pressure;BME280_temperature;BME280_humidity;BME280_pressure;Samples;Min_cycle;Max_cycle;Signal;HPM_P1;HPM_P2
2021/12/22 00:02:13;;;;;;;44.73;23.17;;;-2.60;99.90;;;;;;4951577;28;38469;-72
2021/12/22 00:04:44;;;;;;;42.40;21.67;;;-2.50;99.90;;;;;;4940725;28;37311;-72
2021/12/22 00:07:14;;;;;;;43.07;23.43;;;-2.50;99.90;;;;;;4926266;28;38838;-72
2021/12/22 00:09:41;;;;;;;43.90;21.63;;;-2.50;99.90;;;;;;4961232;28;39246;-73
2021/12/22 00:12:08;;;;;;;48.37;23.47;;;-2.50;99.90;;;;;;4941116;28;38965;-72
2021/12/22 00:14:34;;;;;;;41.37;22.83;;;-2.50;99.90;;;;;;4938886;28;39493;-72
2021/12/22 00:17:00;;;;;;;44.40;22.97;;;-2.50;99.90;;;;;;4952195;28;41174;-72
2021/12/22 00:19:27;;;;;;;45.67;24.87;;;-2.60;99.90;;;;;;4955058;28;47177;-72
2021/12/22 00:21:53;;;;;;;54.87;28.30;;;-2.60;99.90;;;;;;4940604;28;40180;-73
2021/12/22 00:24:19;;;;;;;50.47;26.60;;;-2.70;99.90;;;;;;4944285;28;39133;-72
2021/12/22 00:26:45;;;;;;;45.23;25.80;;;-2.80;99.90;;;;;;4943389;28;37376;-72
2021/12/22 00:29:13;;;;;;;48.87;25.60;;;-2.70;99.90;;;;;;4935393;28;39736;-72
2021/12/22 00:31:46;;;;;;;46.13;25.13;;;-2.80;99.90;;;;;;4956475;28;38831;-72
2021/12/22 00:34:16;;;;;;;45.87;23.70;;;-2.90;99.90;;;;;;4948583;28;38517;-73
2021/12/22 00:36:44;;;;;;;41.10;23.73;;;-2.80;99.90;;;;;;4946551;28;39056;-72
2021/12/22 00:39:10;;;;;;;41.07;21.93;;;-2.80;99.90;;;;;;4950224;28;38878;-73
2021/12/22 00:41:37;;;;;;;43.83;22.57;;;-2.90;99.90;;;;;;4956424;28;39535;-73
2021/12/22 00:44:03;;;;;;;56.73;24.47;;;-2.90;99.90;;;;;;4966777;28;39474;-72
2021/12/22 00:46:29;;;;;;;38.80;21.97;;;-2.90;99.90;;;;;;4962119;28;39002;-73
2021/12/22 00:48:55;;;;;;;35.70;19.87;;;-2.90;99.90;;;;;;4949158;28;38834;-72
2021/12/22 00:51:21;;;;;;;39.43;22.57;;;-2.90;99.90;;;;;;4950181;28;37337;-73
2021/12/22 00:53:48;;;;;;;43.97;22.37;;;-2.90;99.90;;;;;;4946800;28;39200;-73
2021/12/22 00:56:14;;;;;;;45.57;23.00;;;-2.80;99.90;;;;;;4961071;28;38154;-72
2021/12/22 00:58:40;;;;;;;41.13;21.27;;;-2.90;99.90;;;;;;4956885;28;39760;-73
2021/12/22 01:01:07;;;;;;;42.13;22.27;;;-2.90;99.90;;;;;;4965817;28;40506;-73
2021/12/22 01:03:35;;;;;;;39.23;21.40;;;-2.90;99.90;;;;;;4957354;28;38594;-72
2021/12/22 01:06:02;;;;;;;40.77;22.23;;;-2.80;99.90;;;;;;4958424;28;36501;-73
2021/12/22 01:08:29;;;;;;;41.07;21.40;;;-2.90;99.90;;;;;;4952095;28;47044;-72
2021/12/22 01:10:55;;;;;;;41.17;21.10;;;-2.90;99.90;;;;;;4966486;28;38203;-72
2021/12/22 01:13:21;;;;;;;39.90;20.47;;;-2.90;99.90;;;;;;4952697;28;39204;-72
2021/12/22 01:15:48;;;;;;;36.13;19.67;;;-2.90;99.90;;;;;;4953055;28;37357;-71
2021/12/22 01:18:25;;;;;;;42.77;21.37;;;-2.80;99.90;;;;;;4946859;28;40251;-72
2021/12/22 01:23:48;;;;;;;45.07;23.33;;;-2.80;99.90;;;;;;4951195;28;49063;-73
2021/12/22 01:26:14;;;;;;;45.33;21.53;;;-2.90;99.90;;;;;;4950724;28;38652;-73
2021/12/22 01:28:42;;;;;;;56.20;27.70;;;-2.90;99.90;;;;;;4946908;28;39079;-72
2021/12/22 01:31:14;;;;;;;52.30;24.17;;;-2.90;99.90;;;;;;4953740;28;38886;-72
2021/12/22 01:33:40;;;;;;;40.73;22.63;;;-2.90;99.90;;;;;;4965460;28;39624;-73
2021/12/22 01:36:06;;;;;;;42.77;21.57;;;-2.90;99.90;;;;;;4954520;28;37970;-74
2021/12/22 01:38:33;;;;;;;35.43;20.10;;;-3.00;99.90;;;;;;4956612;28;38770;-72
2021/12/22 01:40:59;;;;;;;53.43;24.70;;;-2.90;99.90;;;;;;4953173;28;37528;-72
2021/12/22 01:43:25;;;;;;;41.63;21.77;;;-2.90;99.90;;;;;;4970297;28;39152;-72
2021/12/22 01:49:11;;;;;;;39.67;20.10;;;-3.00;99.90;;;;;;4946620;28;48916;-73
2021/12/22 01:51:55;;;;;;;44.73;22.00;;;-3.00;99.90;;;;;;4964395;28;47072;-73
2021/12/22 01:54:32;;;;;;;40.70;22.17;;;-3.10;99.90;;;;;;4957490;28;40041;-73
2021/12/22 01:57:08;;;;;;;46.87;23.30;;;-3.20;99.90;;;;;;4959382;28;36349;-73
2021/12/22 01:59:34;;;;;;;36.97;20.57;;;-3.30;99.90;;;;;;4962666;28;47294;-72
2021/12/22 02:02:00;;;;;;;44.23;21.43;;;-3.20;99.90;;;;;;4968668;28;38012;-72
2021/12/22 02:04:27;;;;;;;41.60;20.57;;;-3.10;99.90;;;;;;4956340;28;47010;-73
2021/12/22 02:06:53;;;;;;;45.53;22.93;;;-3.10;99.90;;;;;;4947411;28;37933;-73
2021/12/22 02:12:02;;;;;;;43.08;23.42;;;-3.10;99.90;;;;;;4954562;28;39752;-73
2021/12/22 02:14:28;;;;;;;39.63;20.20;;;-3.20;99.90;;;;;;4958086;28;39369;-72
2021/12/22 02:16:54;;;;;;;48.13;23.77;;;-3.20;99.90;;;;;;4948457;28;37509;-73
2021/12/22 02:19:20;;;;;;;40.77;20.80;;;-3.30;99.90;;;;;;4948544;28;37489;-73
2021/12/22 02:21:52;;;;;;;36.43;19.63;;;-3.40;99.90;;;;;;4948460;28;38983;-73
2021/12/22 02:24:18;;;;;;;42.38;20.40;;;-3.40;99.90;;;;;;4957077;28;40149;-72
2021/12/22 02:27:03;;;;;;;42.03;22.47;;;-3.50;99.90;;;;;;4951761;28;37619;-72
2021/12/22 02:29:37;;;;;;;42.83;23.03;;;-3.50;99.90;;;;;;4957055;28;47500;-73
2021/12/22 02:32:11;;;;;;;40.83;20.23;;;-3.50;99.90;;;;;;4959573;28;38051;-72
2021/12/22 02:34:47;;;;;;;49.50;20.63;;;-3.40;99.90;;;;;;4961926;28;38827;-73
2021/12/22 02:37:17;;;;;;;44.30;23.70;;;-3.30;99.90;;;;;;4959664;28;36507;-73
2021/12/22 02:39:58;;;;;;;47.30;23.63;;;-3.20;99.90;;;;;;4950849;28;38922;-72
2021/12/22 02:42:32;;;;;;;42.60;20.93;;;-3.20;99.90;;;;;;4947214;28;37600;-72
2021/12/22 02:45:13;;;;;;;49.80;24.20;;;-3.30;99.90;;;;;;4960031;28;38059;-72
2021/12/22 02:47:39;;;;;;;45.80;22.00;;;-3.40;99.90;;;;;;4948862;28;47173;-72
2021/12/22 02:50:07;;;;;;;43.50;21.90;;;-3.40;99.90;;;;;;4967019;28;39224;-72
2021/12/22 02:55:29;;;;;;;36.80;20.63;;;-3.30;99.90;;;;;;4942821;28;39379;-73
2021/12/22 02:57:59;;;;;;;39.90;21.07;;;-3.30;99.90;;;;;;4946448;28;38588;-72
2021/12/22 03:00:47;;;;;;;48.43;23.27;;;-3.40;99.90;;;;;;4967669;28;37874;-73
2021/12/22 03:05:55;;;;;;;45.83;21.80;;;-3.50;99.90;;;;;;4946614;28;38748;-73
2021/12/22 03:08:21;;;;;;;37.80;20.37;;;-3.50;99.90;;;;;;4951703;28;36456;-73
2021/12/22 03:10:51;;;;;;;36.67;19.33;;;-3.50;99.90;;;;;;4949569;28;38574;-73
2021/12/22 03:13:20;;;;;;;48.03;23.00;;;-3.50;99.90;;;;;;4947103;28;38340;-73
2021/12/22 03:15:46;;;;;;;41.07;21.03;;;-3.50;99.90;;;;;;4955251;28;37575;-73
2021/12/22 03:18:12;;;;;;;43.67;22.60;;;-3.40;99.90;;;;;;4953867;28;37292;-73
2021/12/22 03:20:38;;;;;;;40.03;20.27;;;-3.40;99.90;;;;;;4948364;28;39636;-73
2021/12/22 03:23:05;;;;;;;50.83;23.07;;;-3.40;99.90;;;;;;4951337;28;39757;-74
2021/12/22 03:25:31;;;;;;;41.23;22.17;;;-3.40;99.90;;;;;;4950718;28;38175;-73
2021/12/22 03:28:02;;;;;;;42.67;20.97;;;-3.40;99.90;;;;;;4946702;28;37891;-73
2021/12/22 03:30:29;;;;;;;41.10;19.77;;;-3.50;99.90;;;;;;4963561;28;46604;-74
2021/12/22 03:32:56;;;;;;;42.57;20.80;;;-3.40;99.90;;;;;;4958390;28;37785;-73
2021/12/22 03:35:22;;;;;;;40.23;21.87;;;-3.30;99.90;;;;;;4947874;28;38063;-73
2021/12/22 03:37:55;;;;;;;41.70;20.47;;;-3.30;99.90;;;;;;4959587;28;37829;-73
2021/12/22 03:40:23;;;;;;;41.58;19.73;;;-3.40;99.90;;;;;;4954967;28;37942;-73
2021/12/22 03:42:49;;;;;;;33.10;19.63;;;-3.40;99.90;;;;;;4952412;28;39211;-73
2021/12/22 03:45:16;;;;;;;43.93;21.73;;;-3.40;99.90;;;;;;4955251;28;38620;-73
2021/12/22 03:47:44;;;;;;;38.93;21.07;;;-3.40;99.90;;;;;;4949012;28;37918;-73
2021/12/22 03:50:11;;;;;;;41.67;20.67;;;-3.30;99.90;;;;;;4950339;28;38876;-72
2021/12/22 03:52:38;;;;;;;42.23;21.73;;;-3.30;99.90;;;;;;4972349;28;38153;-74
2021/12/22 03:55:06;;;;;;;40.90;20.73;;;-3.30;99.90;;;;;;4953611;28;38043;-72
2021/12/22 03:57:32;;;;;;;38.23;19.80;;;-3.40;99.90;;;;;;4968495;28;36550;-71
2021/12/22 03:59:59;;;;;;;40.93;20.87;;;-3.30;99.90;;;;;;4959277;28;38934;-72
2021/12/22 04:02:27;;;;;;;38.40;19.80;;;-3.30;99.90;;;;;;4955217;28;36873;-72
2021/12/22 04:04:53;;;;;;;40.73;20.40;;;-3.30;99.90;;;;;;4961379;28;37839;-73
2021/12/22 04:07:20;;;;;;;38.73;20.07;;;-3.30;99.90;;;;;;4959342;28;36280;-72
2021/12/22 04:09:46;;;;;;;42.53;22.00;;;-3.30;99.90;;;;;;4952946;28;39192;-72
2021/12/22 04:12:13;;;;;;;40.90;20.93;;;-3.30;99.90;;;;;;4944190;28;39301;-72
2021/12/22 04:14:39;;;;;;;38.67;20.93;;;-3.40;99.90;;;;;;4962214;28;38507;-72
2021/12/22 04:17:05;;;;;;;36.47;18.77;;;-3.40;99.90;;;;;;4955367;28;37295;-72
2021/12/22 04:19:31;;;;;;;40.70;19.00;;;-3.30;99.90;;;;;;4955820;28;39128;-71
2021/12/22 04:21:57;;;;;;;45.77;21.00;;;-3.20;99.90;;;;;;4954594;28;38990;-72
2021/12/22 04:24:23;;;;;;;53.13;24.93;;;-3.10;99.90;;;;;;4963513;28;38674;-72
2021/12/22 04:26:52;;;;;;;46.23;21.50;;;-3.20;99.90;;;;;;4955923;28;36557;-73
2021/12/22 04:29:19;;;;;;;42.47;22.17;;;-3.20;99.90;;;;;;4950146;28;40494;-72
2021/12/22 04:31:45;;;;;;;48.37;23.07;;;-3.20;99.90;;;;;;4977751;28;39232;-72
2021/12/22 04:34:11;;;;;;;44.93;22.77;;;-3.20;99.90;;;;;;4979252;28;40374;-72
2021/12/22 04:36:39;;;;;;;37.83;18.90;;;-3.30;99.90;;;;;;4957204;28;37967;-73
2021/12/22 04:39:07;;;;;;;39.60;18.00;;;-3.30;99.90;;;;;;4960116;28;37946;-72
2021/12/22 04:41:33;;;;;;;41.27;20.87;;;-3.30;99.90;;;;;;4953818;28;38840;-72
2021/12/22 04:44:00;;;;;;;41.87;19.67;;;-3.20;99.90;;;;;;4951252;28;36096;-72
2021/12/22 04:46:26;;;;;;;49.40;21.70;;;-3.20;99.90;;;;;;4957416;28;38129;-72
2021/12/22 04:48:52;;;;;;;38.73;19.23;;;-3.20;99.90;;;;;;4963515;28;39638;-72
2021/12/22 04:51:28;;;;;;;40.20;19.93;;;-3.20;99.90;;;;;;4971716;28;39429;-73
2021/12/22 04:54:04;;;;;;;54.80;23.63;;;-3.20;99.90;;;;;;4947279;28;39731;-72
2021/12/22 04:56:31;;;;;;;44.60;21.67;;;-3.30;99.90;;;;;;4950893;28;48892;-72
2021/12/22 04:58:58;;;;;;;36.33;19.00;;;-3.30;99.90;;;;;;4953717;28;37758;-72
2021/12/22 05:01:24;;;;;;;40.70;19.87;;;-3.30;99.90;;;;;;4954668;28;40266;-72
2021/12/22 05:03:50;;;;;;;42.13;19.13;;;-3.40;99.90;;;;;;4957053;28;38016;-72
2021/12/22 05:06:16;;;;;;;40.00;20.73;;;-3.40;99.90;;;;;;4951166;28;38489;-73
2021/12/22 05:08:42;;;;;;;41.47;19.27;;;-3.40;99.90;;;;;;4952199;28;38784;-72
2021/12/22 05:11:08;;;;;;;43.37;18.93;;;-3.50;99.90;;;;;;4945572;28;39643;-73
2021/12/22 05:13:36;;;;;;;36.43;17.93;;;-3.50;99.90;;;;;;4954669;28;38806;-72
2021/12/22 05:16:04;;;;;;;37.17;17.80;;;-3.50;99.90;;;;;;4952781;28;37579;-73
2021/12/22 05:21:14;;;;;;;43.63;19.70;;;-3.40;99.90;;;;;;4952237;28;38838;-73
2021/12/22 05:23:41;;;;;;;41.90;20.23;;;-3.40;99.90;;;;;;4961131;28;39306;-72
2021/12/22 05:26:07;;;;;;;49.27;21.13;;;-3.40;99.90;;;;;;4967663;28;38815;-73
2021/12/22 05:28:33;;;;;;;51.30;22.97;;;-3.30;99.90;;;;;;4950414;28;39099;-72
2021/12/22 05:30:59;;;;;;;43.70;21.00;;;-3.30;99.90;;;;;;4967964;28;38603;-72
2021/12/22 05:33:25;;;;;;;45.67;19.70;;;-3.20;99.90;;;;;;4961348;28;38477;-73
2021/12/22 05:35:51;;;;;;;41.13;19.70;;;-3.20;99.90;;;;;;4964846;28;38609;-73
2021/12/22 05:38:17;;;;;;;45.03;23.47;;;-3.20;99.90;;;;;;4956729;28;40537;-73
2021/12/22 05:40:43;;;;;;;42.93;21.23;;;-3.20;99.90;;;;;;4964318;28;38184;-72
2021/12/22 05:43:10;;;;;;;46.90;20.87;;;-3.20;99.90;;;;;;4971207;28;40000;-72
2021/12/22 05:45:36;;;;;;;35.40;19.73;;;-3.20;99.90;;;;;;4988663;28;37542;-72
2021/12/22 05:48:03;;;;;;;38.93;18.90;;;-3.20;99.90;;;;;;4966296;28;38568;-72
2021/12/22 05:50:29;;;;;;;45.83;21.17;;;-3.10;99.90;;;;;;4966128;28;47428;-73
2021/12/22 05:52:55;;;;;;;46.00;24.07;;;-3.10;99.90;;;;;;4954853;28;38959;-73
2021/12/22 05:55:22;;;;;;;42.37;20.50;;;-3.10;99.90;;;;;;4970916;28;37496;-72
2021/12/22 05:57:48;;;;;;;42.57;22.27;;;-3.10;99.90;;;;;;4965805;28;39800;-73
2021/12/22 06:00:14;;;;;;;47.37;22.83;;;-3.00;99.90;;;;;;4956649;28;39084;-73
2021/12/22 06:02:41;;;;;;;47.30;21.50;;;-3.00;99.90;;;;;;4960330;28;38606;-72
2021/12/22 06:05:09;;;;;;;39.73;19.70;;;-3.00;99.90;;;;;;4958148;28;37486;-73
2021/12/22 06:07:35;;;;;;;36.37;18.83;;;-3.00;99.90;;;;;;4957726;28;37662;-72
2021/12/22 06:10:01;;;;;;;40.93;20.63;;;-2.90;99.90;;;;;;4965924;28;40434;-73
2021/12/22 06:12:27;;;;;;;43.27;23.13;;;-2.90;99.90;;;;;;4954065;28;47277;-73
2021/12/22 06:14:53;;;;;;;46.27;22.73;;;-3.00;99.90;;;;;;4943412;28;37448;-72
2021/12/22 06:17:19;;;;;;;48.37;20.70;;;-3.00;99.90;;;;;;4959399;28;38907;-73
2021/12/22 06:19:45;;;;;;;39.20;19.60;;;-3.00;99.90;;;;;;4965037;28;40040;-72
2021/12/22 06:22:11;;;;;;;43.70;21.40;;;-3.10;99.90;;;;;;4956306;28;38706;-72
2021/12/22 06:24:37;;;;;;;41.10;20.23;;;-3.10;99.90;;;;;;4976601;28;38128;-72
2021/12/22 06:27:03;;;;;;;47.20;22.27;;;-3.10;99.90;;;;;;4960464;28;38823;-72
2021/12/22 06:29:29;;;;;;;50.43;21.37;;;-3.00;99.90;;;;;;4966240;28;39295;-72
2021/12/22 06:31:55;;;;;;;40.77;21.57;;;-3.00;99.90;;;;;;4972187;28;38682;-72
2021/12/22 06:34:21;;;;;;;44.90;24.03;;;-3.00;99.90;;;;;;4967579;28;37172;-72
2021/12/22 06:36:48;;;;;;;53.03;24.83;;;-2.90;99.90;;;;;;4965338;28;39477;-73
2021/12/22 06:39:16;;;;;;;51.13;26.70;;;-2.60;99.90;;;;;;4981996;28;39642;-73
2021/12/22 06:41:42;;;;;;;49.00;26.13;;;-2.40;99.90;;;;;;4950658;28;39040;-73
2021/12/22 06:44:08;;;;;;;42.50;23.43;;;-2.20;99.90;;;;;;4968774;28;38263;-73
2021/12/22 06:46:34;;;;;;;53.20;27.20;;;-2.00;99.90;;;;;;4957374;28;38445;-73
2021/12/22 06:49:00;;;;;;;47.77;23.87;;;-2.00;99.90;;;;;;4959281;28;39243;-73
2021/12/22 06:51:26;;;;;;;45.97;24.47;;;-2.00;99.90;;;;;;4957261;28;38696;-73
2021/12/22 06:53:52;;;;;;;49.07;25.93;;;-2.00;99.90;;;;;;4948936;28;37424;-73
2021/12/22 06:56:18;;;;;;;51.03;27.03;;;-2.00;99.90;;;;;;4967998;28;39523;-71
2021/12/22 06:58:44;;;;;;;44.00;22.80;;;-2.10;99.90;;;;;;4951478;28;39492;-73
2021/12/22 07:01:16;;;;;;;42.20;22.50;;;-2.10;99.90;;;;;;4952130;28;39114;-73
2021/12/22 07:03:43;;;;;;;39.72;22.25;;;-2.20;99.90;;;;;;4962457;28;38262;-73
2021/12/22 07:06:09;;;;;;;47.33;24.77;;;-2.10;99.90;;;;;;4966967;28;39666;-73
2021/12/22 07:08:35;;;;;;;44.37;23.13;;;-2.10;99.90;;;;;;4956280;28;40120;-73
2021/12/22 07:11:01;;;;;;;41.97;22.33;;;-2.10;99.90;;;;;;4961240;28;37220;-73
2021/12/22 07:13:28;;;;;;;42.77;23.37;;;-2.10;99.90;;;;;;4971542;28;47551;-73
2021/12/22 07:15:54;;;;;;;43.67;23.97;;;-2.00;99.90;;;;;;4947873;28;36770;-73
2021/12/22 07:18:20;;;;;;;47.37;25.13;;;-1.90;99.90;;;;;;4954606;28;39729;-73
2021/12/22 07:20:46;;;;;;;48.03;25.73;;;-1.80;99.90;;;;;;4952070;28;39373;-73
2021/12/22 07:23:12;;;;;;;49.03;24.97;;;-1.80;99.90;;;;;;4956098;28;38807;-73
2021/12/22 07:25:38;;;;;;;50.80;26.30;;;-1.80;99.90;;;;;;4952368;28;38481;-73
2021/12/22 07:28:04;;;;;;;44.07;22.93;;;-1.70;99.90;;;;;;4960649;28;39326;-73
2021/12/22 07:30:31;;;;;;;42.97;22.93;;;-1.70;99.90;;;;;;4966640;28;38551;-73
2021/12/22 07:32:57;;;;;;;50.30;25.73;;;-1.80;99.90;;;;;;4964232;28;37736;-73
2021/12/22 07:35:33;;;;;;;45.87;24.63;;;-1.90;99.90;;;;;;4959167;28;39520;-73
2021/12/22 07:38:24;;;;;;;55.00;26.87;;;-1.90;99.90;;;;;;4958451;28;38875;-73
2021/12/22 07:40:52;;;;;;;47.07;24.10;;;-1.90;99.90;;;;;;4958842;28;48637;-73
2021/12/22 07:43:18;;;;;;;50.43;25.47;;;-1.90;99.90;;;;;;4960835;28;37434;-73
2021/12/22 07:45:45;;;;;;;40.97;24.13;;;-1.90;99.90;;;;;;4948587;28;38900;-73
2021/12/22 07:48:11;;;;;;;41.97;24.93;;;-1.90;99.90;;;;;;4951847;28;38922;-73
2021/12/22 07:50:37;;;;;;;47.33;24.17;;;-2.00;99.90;;;;;;4963602;28;39212;-72
2021/12/22 07:53:04;;;;;;;40.97;22.47;;;-2.10;99.90;;;;;;4956527;28;38849;-73
2021/12/22 07:55:30;;;;;;;43.27;23.73;;;-2.00;99.90;;;;;;4951113;28;38953;-73
2021/12/22 07:57:56;;;;;;;55.17;27.23;;;-2.00;99.90;;;;;;4958036;28;38770;-73
2021/12/22 08:00:22;;;;;;;42.67;23.53;;;-1.90;99.90;;;;;;4962629;28;38157;-73
2021/12/22 08:02:48;;;;;;;43.20;23.53;;;-1.90;99.90;;;;;;4960293;28;37457;-73
2021/12/22 08:05:15;;;;;;;47.60;26.83;;;-1.90;99.90;;;;;;4960666;28;38808;-74
2021/12/22 08:07:41;;;;;;;39.53;21.90;;;-1.90;99.90;;;;;;4961935;28;40148;-72
2021/12/22 08:10:08;;;;;;;38.17;22.23;;;-2.00;99.90;;;;;;4968182;28;39557;-73
2021/12/22 08:12:34;;;;;;;41.27;23.33;;;-2.00;99.90;;;;;;4963606;28;38116;-72
2021/12/22 08:15:01;;;;;;;55.33;26.07;;;-2.00;99.90;;;;;;4961965;28;41870;-73
2021/12/22 08:17:28;;;;;;;38.37;21.73;;;-2.10;99.90;;;;;;4951924;28;47307;-72
2021/12/22 08:19:54;;;;;;;39.77;21.57;;;-2.10;99.90;;;;;;4954714;28;39248;-73
2021/12/22 08:22:20;;;;;;;41.50;20.67;;;-2.10;99.90;;;;;;4947928;28;39055;-73
2021/12/22 08:24:46;;;;;;;39.93;22.13;;;-2.20;99.90;;;;;;4951237;28;39490;-73
2021/12/22 08:27:12;;;;;;;42.03;23.10;;;-2.20;99.90;;;;;;4945388;28;39383;-73
2021/12/22 08:29:42;;;;;;;38.73;20.03;;;-2.30;99.90;;;;;;4936231;28;38840;-72
2021/12/22 08:32:13;;;;;;;41.60;20.23;;;-2.30;99.90;;;;;;4954354;28;38060;-73
2021/12/22 08:34:41;;;;;;;37.73;21.20;;;-2.40;99.90;;;;;;4950091;28;38755;-72
2021/12/22 08:39:54;;;;;;;31.23;18.30;;;-2.40;99.90;;;;;;4952913;28;40018;-72
2021/12/22 08:42:20;;;;;;;36.50;21.17;;;-2.40;99.90;;;;;;4951226;28;38813;-73
2021/12/22 08:44:48;;;;;;;36.23;22.07;;;-2.30;99.90;;;;;;4955952;28;38774;-72
2021/12/22 08:47:15;;;;;;;36.60;20.67;;;-2.20;99.90;;;;;;4948607;28;37832;-72
2021/12/22 08:49:41;;;;;;;35.67;21.07;;;-2.20;99.90;;;;;;4957723;28;39130;-71
2021/12/22 08:52:07;;;;;;;37.00;21.00;;;-2.10;99.90;;;;;;4956078;28;36662;-72
2021/12/22 08:54:33;;;;;;;38.50;23.97;;;-2.00;99.90;;;;;;4970990;28;38316;-72
2021/12/22 08:57:00;;;;;;;41.17;23.30;;;-1.80;99.90;;;;;;4959553;28;39705;-71
2021/12/22 08:59:26;;;;;;;34.73;22.20;;;-1.70;99.90;;;;;;4973545;28;39920;-72
2021/12/22 09:01:53;;;;;;;47.77;24.97;;;-1.60;99.90;;;;;;4962617;28;37494;-71
2021/12/22 09:04:20;;;;;;;38.77;23.17;;;-1.50;99.90;;;;;;4956284;28;37942;-71
2021/12/22 09:06:47;;;;;;;47.30;25.67;;;-1.30;99.90;;;;;;4967006;28;39109;-71
2021/12/22 09:09:13;;;;;;;67.87;28.00;;;-1.30;99.90;;;;;;4956264;28;38841;-72
2021/12/22 09:11:40;;;;;;;42.17;23.40;;;-1.20;99.90;;;;;;4961685;28;36309;-71
2021/12/22 09:14:08;;;;;;;46.33;23.13;;;-1.10;99.90;;;;;;4959999;28;40160;-71
2021/12/22 09:16:36;;;;;;;47.53;25.30;;;-1.00;99.90;;;;;;4954344;28;38948;-71
2021/12/22 09:19:07;;;;;;;38.93;23.77;;;-1.00;99.90;;;;;;4957250;28;38689;-71
2021/12/22 09:21:34;;;;;;;42.07;25.30;;;-0.90;99.90;;;;;;4967783;28;37238;-70
2021/12/22 09:24:00;;;;;;;41.73;22.53;;;-0.80;99.90;;;;;;4969975;28;39440;-71
2021/12/22 09:26:26;;;;;;;39.93;22.87;;;-0.70;99.90;;;;;;4968292;28;47165;-71
2021/12/22 09:28:54;;;;;;;41.27;25.33;;;-0.60;99.90;;;;;;4963837;28;38974;-72
2021/12/22 09:31:22;;;;;;;48.33;27.60;;;-0.60;99.90;;;;;;4957583;28;37570;-71
2021/12/22 09:33:49;;;;;;;46.67;25.73;;;-0.50;99.90;;;;;;4962586;28;39239;-71
2021/12/22 09:36:16;;;;;;;40.43;25.33;;;-0.60;99.90;;;;;;4955741;28;38957;-71
2021/12/22 09:38:42;;;;;;;48.47;25.77;;;-0.50;99.90;;;;;;4960039;28;38643;-71
2021/12/22 09:41:10;;;;;;;50.63;26.67;;;-0.50;99.90;;;;;;4966316;28;38637;-72
2021/12/22 09:43:36;;;;;;;42.87;23.10;;;-0.50;99.90;;;;;;4963401;28;39317;-72
2021/12/22 09:46:07;;;;;;;49.37;26.03;;;-0.40;99.90;;;;;;4978319;28;40399;-73
2021/12/22 09:53:30;;;;;;;38.03;22.60;;;-0.10;99.90;;;;;;4952474;28;49686;-72
2021/12/22 09:55:58;;;;;;;47.43;25.67;;;0.00;99.90;;;;;;4952894;28;38750;-71
2021/12/22 09:58:26;;;;;;;41.37;23.83;;;0.10;99.90;;;;;;4956583;28;37329;-72
2021/12/22 10:00:53;;;;;;;44.67;24.40;;;0.20;99.90;;;;;;4958288;28;37676;-72
2021/12/22 10:03:21;;;;;;;45.67;27.07;;;0.20;99.90;;;;;;4954808;28;39140;-72
2021/12/22 10:05:48;;;;;;;41.90;26.07;;;0.30;99.90;;;;;;4959730;28;39549;-71
2021/12/22 10:08:17;;;;;;;37.87;25.07;;;0.30;99.90;;;;;;4964043;28;38850;-71
2021/12/22 10:10:47;;;;;;;44.77;25.23;;;0.40;99.90;;;;;;4950397;28;37139;-71
2021/12/22 10:13:23;;;;;;;36.57;24.43;;;0.40;99.90;;;;;;4950410;28;39131;-71
2021/12/22 10:15:49;;;;;;;41.50;27.50;;;0.40;99.90;;;;;;4956916;28;39011;-71
2021/12/22 10:18:17;;;;;;;48.17;28.50;;;0.40;99.90;;;;;;4970187;28;38598;-72
2021/12/22 10:20:46;;;;;;;52.60;30.23;;;0.50;99.90;;;;;;4952408;28;38512;-72
2021/12/22 10:23:26;;;;;;;38.90;25.73;;;0.60;99.90;;;;;;4962463;28;39503;-71
2021/12/22 10:25:55;;;;;;;44.17;25.77;;;0.70;99.90;;;;;;4958156;28;39486;-71
2021/12/22 10:28:23;;;;;;;37.23;23.03;;;0.80;99.90;;;;;;4962964;28;40366;-71
2021/12/22 10:30:55;;;;;;;41.67;23.70;;;0.90;99.90;;;;;;4963653;28;38409;-72
2021/12/22 10:33:32;;;;;;;35.95;20.30;;;0.90;99.90;;;;;;4966313;28;39580;-71
2021/12/22 10:36:08;;;;;;;31.77;20.60;;;1.00;99.90;;;;;;4977390;28;39509;-71
2021/12/22 10:38:34;;;;;;;36.33;20.50;;;1.10;99.90;;;;;;4964762;28;47286;-71
2021/12/22 10:41:06;;;;;;;37.67;20.90;;;1.20;99.90;;;;;;4958216;28;37830;-70
2021/12/22 10:43:39;;;;;;;28.15;17.75;;;1.30;99.90;;;;;;4968247;28;48245;-71
2021/12/22 10:46:05;;;;;;;34.63;18.73;;;1.30;99.90;;;;;;4958163;28;37494;-71
2021/12/22 10:51:28;;;;;;;25.87;16.70;;;1.40;99.90;;;;;;4964590;28;37931;-71
2021/12/22 10:53:56;;;;;;;26.23;16.30;;;1.40;99.90;;;;;;4956388;28;39707;-71
2021/12/22 10:56:30;;;;;;;26.80;17.00;;;1.40;99.90;;;;;;4955820;28;38885;-72
2021/12/22 10:59:05;;;;;;;23.00;16.10;;;1.50;99.90;;;;;;4962844;28;39972;-74
2021/12/22 11:01:36;;;;;;;24.90;16.33;;;1.50;99.90;;;;;;4953434;28;46595;-71
2021/12/22 11:04:13;;;;;;;28.80;16.77;;;1.60;99.90;;;;;;4954889;28;38722;-72
2021/12/22 11:06:40;;;;;;;29.60;16.47;;;1.60;99.90;;;;;;4981297;28;40296;-72
2021/12/22 11:09:13;;;;;;;26.83;16.77;;;1.60;99.90;;;;;;4950901;28;37423;-72
2021/12/22 11:11:51;;;;;;;27.20;16.53;;;1.60;99.90;;;;;;4986329;28;39311;-71
2021/12/22 11:14:26;;;;;;;29.60;18.27;;;1.70;99.90;;;;;;4955205;28;38760;-71
2021/12/22 11:17:01;;;;;;;26.13;16.67;;;1.70;99.90;;;;;;4964659;28;39215;-71
2021/12/22 11:19:30;;;;;;;27.77;16.43;;;1.70;99.90;;;;;;4966024;28;47295;-71
2021/12/22 11:22:12;;;;;;;23.47;15.97;;;1.70;99.90;;;;;;4969044;28;20159;-71
2021/12/22 11:24:41;;;;;;;28.67;16.83;;;1.80;99.90;;;;;;4960879;28;49007;-71
2021/12/22 11:27:09;;;;;;;27.67;16.47;;;1.80;99.90;;;;;;4948776;28;42529;-71
2021/12/22 11:29:37;;;;;;;22.10;15.00;;;1.90;99.90;;;;;;4952828;28;38504;-72
2021/12/22 11:32:05;;;;;;;24.27;16.00;;;1.90;99.90;;;;;;4956683;28;38322;-71
2021/12/22 11:34:37;;;;;;;25.07;15.80;;;2.00;99.90;;;;;;4953275;28;38740;-71
2021/12/22 11:37:05;;;;;;;22.93;14.80;;;2.00;99.90;;;;;;4963949;28;39777;-71
2021/12/22 11:39:33;;;;;;;26.63;14.17;;;2.10;99.90;;;;;;4979662;28;39517;-71
2021/12/22 11:42:02;;;;;;;24.07;15.03;;;2.10;99.90;;;;;;4956783;28;39316;-71
2021/12/22 11:44:30;;;;;;;26.13;14.40;;;2.20;99.90;;;;;;4948666;28;47231;-71
2021/12/22 11:47:00;;;;;;;23.13;13.90;;;2.20;99.90;;;;;;4961635;28;38960;-71
2021/12/22 11:49:28;;;;;;;22.80;13.97;;;2.20;99.90;;;;;;4985728;28;39648;-72
2021/12/22 11:51:57;;;;;;;25.10;13.87;;;2.40;99.90;;;;;;4982988;28;36338;-71
2021/12/22 11:54:27;;;;;;;21.63;13.10;;;2.40;99.90;;;;;;4961039;28;38578;-72
2021/12/22 11:56:59;;;;;;;18.67;12.20;;;2.50;99.90;;;;;;4960791;28;38543;-72
2021/12/22 11:59:31;;;;;;;19.60;12.60;;;2.50;99.90;;;;;;4977131;28;39430;-72
2021/12/22 12:02:16;;;;;;;20.85;13.77;;;2.40;99.90;;;;;;4954670;28;37588;-72
2021/12/22 12:04:42;;;;;;;20.37;12.80;;;2.50;99.90;;;;;;4966360;28;48597;-72
2021/12/22 12:07:09;;;;;;;19.93;12.13;;;2.60;99.90;;;;;;4947035;28;39578;-72
2021/12/22 12:09:42;;;;;;;22.80;14.33;;;2.60;99.90;;;;;;4963940;28;38646;-72
2021/12/22 12:12:50;;;;;;;22.90;14.20;;;2.70;99.90;;;;;;4962531;28;38844;-72
2021/12/22 12:15:36;;;;;;;;;;;2.60;99.90;;;;;;4950884;28;39651;-72
2021/12/22 12:23:44;;;;;;;;;;;2.60;99.90;;;;;;4946228;28;49262;-72
2021/12/22 12:26:30;;;;;;;;;;;2.60;99.90;;;;;;4961661;28;39569;-72
2021/12/22 12:28:56;;;;;;;;;;;2.60;99.90;;;;;;4957320;28;39766;-73
2021/12/22 12:31:38;;;;;;;;;;;2.70;99.90;;;;;;4958155;28;38409;-73
2021/12/22 12:34:23;;;;;;;;;;;2.80;99.90;;;;;;4960081;28;36892;-73
2021/12/22 12:36:49;;;;;;;;;;;2.90;99.90;;;;;;4950547;28;39990;-72
2021/12/22 12:39:15;;;;;;;;;;;2.90;99.90;;;;;;4958390;28;39188;-73
2021/12/22 12:41:58;;;;;;;;;;;2.90;99.90;;;;;;4948574;28;36960;-73
2021/12/22 12:44:27;;;;;;;;;;;2.90;99.90;;;;;;4956491;28;37488;-72
2021/12/22 12:46:53;;;;;;;;;;;3.00;99.90;;;;;;4961413;28;40200;-72
2021/12/22 12:49:19;;;;;;;;;;;2.90;99.90;;;;;;4959607;28;40759;-71
2021/12/22 12:51:47;;;;;;;;;;;2.90;99.90;;;;;;4958352;28;37077;-72
2021/12/22 12:54:15;;;;;;;;;;;2.90;99.90;;;;;;4963519;28;37863;-72
2021/12/22 12:57:01;;;;;;;;;;;2.90;99.90;;;;;;4964737;28;38594;-72
2021/12/22 12:59:37;;;;;;;;;;;2.90;99.90;;;;;;4959162;28;48339;-72
2021/12/22 13:02:03;;;;;;;;;;;2.80;99.90;;;;;;4965248;28;37871;-71
2021/12/22 13:04:31;;;;;;;;;;;2.90;99.90;;;;;;4963932;28;37245;-72
2021/12/22 13:07:00;;;;;;;;;;;3.00;99.90;;;;;;4967829;28;39221;-73
2021/12/22 13:09:30;;;;;;;;;;;3.00;99.90;;;;;;4958982;28;39674;-72
2021/12/22 13:12:12;;;;;;;;;;;3.00;99.90;;;;;;4967340;28;38449;-72
2021/12/22 13:17:24;;;;;;;;;;;3.10;99.90;;;;;;4958375;28;39698;-72
2021/12/22 13:19:55;;;;;;;;;;;3.10;99.90;;;;;;4955608;28;40393;-72
2021/12/22 13:22:31;;;;;;;;;;;3.10;99.90;;;;;;4963391;28;37863;-72